createdAt,value
2019-03-05T00:01:55.867Z,94790.24
2019-03-05T00:04:44.400Z,94794.08
2019-03-05T00:07:32.788Z,94807.80
2019-03-05T00:10:21.422Z,94799.19
2019-03-05T00:13:10.374Z,94800.06
2019-03-05T00:15:59.155Z,94805.22
2019-03-05T00:18:47.914Z,94806.99
2019-03-05T00:21:36.785Z,94825.47
2019-03-05T00:25:04.238Z,94823.30
2019-03-05T00:28:08.905Z,94840.63
2019-03-05T00:31:14.689Z,94841.14
2019-03-05T00:34:21.226Z,94830.86
2019-03-05T00:37:22.134Z,94836.89
2019-03-05T00:40:47.996Z,94839.59
2019-03-05T00:44:04.570Z,94836.66
2019-03-05T00:47:35.646Z,94830.70
2019-03-05T00:50:59.699Z,94836.28
2019-03-05T00:54:10.769Z,94834.17
2019-03-05T00:57:13.302Z,94832.09
2019-03-05T01:00:30.406Z,94840.71
2019-03-05T01:03:38.779Z,94850.99
2019-03-05T01:06:28.051Z,94858.38
2019-03-05T01:09:22.240Z,94852.34
2019-03-05T01:12:11.768Z,94847.58
2019-03-05T01:15:00.170Z,94854.86
2019-03-05T01:17:49.308Z,94843.70
2019-03-05T01:20:38.189Z,94846.25
2019-03-05T01:23:26.726Z,94844.95
2019-03-05T01:26:15.019Z,94851.41
2019-03-05T01:29:03.397Z,94855.19
2019-03-05T01:32:08.786Z,94852.61
2019-03-05T01:35:06.760Z,94847.07
2019-03-05T01:37:55.298Z,94856.58
2019-03-05T01:40:50.710Z,94851.87
2019-03-05T01:43:38.853Z,94850.26
2019-03-05T01:46:27.545Z,94861.47
2019-03-05T01:49:16.522Z,94858.93
2019-03-05T01:52:05.402Z,94859.07
2019-03-05T01:54:53.792Z,94855.16
2019-03-05T01:57:42.601Z,94853.48
2019-03-05T02:00:31.271Z,94853.95
2019-03-05T02:03:20.082Z,94862.11
2019-03-05T02:06:08.839Z,94849.30
2019-03-05T02:08:57.078Z,94846.67
2019-03-05T02:11:45.722Z,94854.45
2019-03-05T02:14:34.472Z,94849.80
2019-03-05T02:17:23.541Z,94843.39
2019-03-05T02:20:15.133Z,94851.97
2019-03-05T02:23:34.399Z,94855.51
2019-03-05T02:27:05.348Z,94868.33
2019-03-05T02:30:23.152Z,94862.25
2019-03-05T02:33:34.010Z,94858.75
2019-03-05T02:36:37.333Z,94857.45
2019-03-05T02:39:43.268Z,94865.61
2019-03-05T02:42:51.835Z,94862.11
2019-03-05T02:45:48.783Z,94866.86
2019-03-05T02:49:10.194Z,94862.66
2019-03-05T02:52:23.200Z,94859.95
2019-03-05T02:55:58.612Z,94850.45
2019-03-05T02:58:45.652Z,94856.86
2019-03-05T03:01:46.281Z,94858.11
2019-03-05T03:04:38.819Z,94845.56
2019-03-05T03:07:27.126Z,94846.80
2019-03-05T03:10:19.218Z,94852.02
2019-03-05T03:13:07.378Z,94848.92
2019-03-05T03:15:56.023Z,94843.67
2019-03-05T03:18:44.759Z,94842.42
2019-03-05T03:21:32.943Z,94838.55
2019-03-05T03:24:21.747Z,94842.47
2019-03-05T03:27:10.852Z,94839.47
2019-03-05T03:29:59.380Z,94837.73
2019-03-05T03:32:47.965Z,94833.84
2019-03-05T03:35:39.054Z,94832.50
2019-03-05T03:38:27.408Z,94828.54
2019-03-05T03:41:15.718Z,94841.49
2019-03-05T03:44:04.094Z,94841.45
2019-03-05T03:46:52.670Z,94840.16
2019-03-05T03:49:40.969Z,94844.95
2019-03-05T03:52:29.400Z,94845.27
2019-03-05T03:55:18.156Z,94847.39
2019-03-05T03:58:06.455Z,94854.66
2019-03-05T04:00:55.209Z,94849.49
2019-03-05T04:03:43.588Z,94848.11
2019-03-05T04:06:32.422Z,94853.33
2019-03-05T04:09:21.244Z,94854.52
2019-03-05T04:12:10.009Z,94850.64
2019-03-05T04:14:58.815Z,94843.72
2019-03-05T04:17:47.255Z,94835.45
2019-03-05T04:20:54.050Z,94844.96
2019-03-05T04:23:42.490Z,94838.91
2019-03-05T04:26:31.819Z,94841.95
2019-03-05T04:29:20.607Z,94833.34
2019-03-05T04:32:09.673Z,94825.99
2019-03-05T04:34:58.613Z,94829.04
2019-03-05T04:37:47.439Z,94826.41
2019-03-05T04:40:36.831Z,94830.65
2019-03-05T04:43:25.981Z,94827.64
2019-03-05T04:46:34.592Z,94829.34
2019-03-05T04:49:30.082Z,94825.95
2019-03-05T04:52:22.343Z,94835.41
2019-03-05T04:55:11.069Z,94832.81
2019-03-05T04:57:59.575Z,94839.64
2019-03-05T05:00:47.957Z,94842.63
2019-03-05T05:03:36.068Z,94842.94
2019-03-05T05:06:24.540Z,94834.25
2019-03-05T05:09:13.910Z,94834.55
2019-03-05T05:12:02.604Z,94835.48
2019-03-05T05:14:51.695Z,94832.39
2019-03-05T05:17:40.579Z,94839.71
2019-03-05T05:20:29.955Z,94832.90
2019-03-05T05:23:18.660Z,94837.77
2019-03-05T05:26:07.267Z,94821.80
2019-03-05T05:28:55.380Z,94823.15
2019-03-05T05:31:44.133Z,94835.24
2019-03-05T05:34:32.657Z,94828.41
2019-03-05T05:37:20.953Z,94836.63
2019-03-05T05:40:27.360Z,94843.14
2019-03-05T05:43:18.446Z,94847.03
2019-03-05T05:46:07.029Z,94842.73
2019-03-05T05:48:55.155Z,94858.19
2019-03-05T05:51:44.424Z,94854.30
2019-03-05T05:54:33.569Z,94855.60
2019-03-05T05:57:22.237Z,94856.11
2019-03-05T06:00:13.595Z,94878.44
2019-03-05T06:03:02.188Z,94864.64
2019-03-05T06:05:50.909Z,94853.84
2019-03-05T06:08:39.664Z,94856.47
2019-03-05T06:11:28.048Z,94859.47
2019-03-05T06:14:16.586Z,94862.89
2019-03-05T06:17:04.721Z,94873.27
2019-03-05T06:19:53.171Z,94886.17
2019-03-05T06:22:41.721Z,94887.47
2019-03-05T06:25:29.829Z,94885.77
2019-03-05T06:28:18.912Z,94886.54
2019-03-05T06:31:07.953Z,94888.67
2019-03-05T06:33:56.405Z,94889.95
2019-03-05T06:36:56.105Z,94888.25
2019-03-05T06:39:44.454Z,94890.05
2019-03-05T06:42:33.608Z,94896.83
2019-03-05T06:45:22.324Z,94898.94
2019-03-05T06:48:11.458Z,94904.58
2019-03-05T06:50:59.701Z,94897.70
2019-03-05T06:53:47.800Z,94904.11
2019-03-05T06:56:36.495Z,94901.02
2019-03-05T06:59:24.998Z,94907.88
2019-03-05T07:02:13.611Z,94921.59
2019-03-05T07:05:02.192Z,94920.19
2019-03-05T07:07:51.378Z,94926.13
2019-03-05T07:11:00.725Z,94928.14
2019-03-05T07:13:49.328Z,94927.08
2019-03-05T07:16:51.251Z,94937.13
2019-03-05T07:20:31.783Z,94937.39
2019-03-05T07:23:48.569Z,94951.13
2019-03-05T07:26:37.148Z,94941.04
2019-03-05T07:29:25.782Z,94946.56
2019-03-05T07:32:14.265Z,94940.03
2019-03-05T07:35:03.015Z,94941.92
2019-03-05T07:37:51.687Z,94942.55
2019-03-05T07:40:40.851Z,94948.19
2019-03-05T07:43:36.540Z,94953.19
2019-03-05T07:46:19.438Z,94960.00
2019-03-05T07:49:08.182Z,94944.59
2019-03-05T07:51:56.818Z,94944.14
2019-03-05T07:54:45.665Z,94966.95
2019-03-05T07:57:34.254Z,94959.89
2019-03-05T08:00:22.797Z,94957.16
2019-03-05T08:03:11.620Z,94956.95
2019-03-05T08:05:59.866Z,94954.70
2019-03-05T08:09:44.320Z,94956.15
2019-03-05T08:13:07.536Z,94965.28
2019-03-05T08:16:24.644Z,94964.94
2019-03-05T08:19:13.114Z,94967.05
2019-03-05T08:22:03.233Z,94964.28
2019-03-05T08:24:51.859Z,94987.19
2019-03-05T08:27:40.403Z,94973.76
2019-03-05T08:30:28.750Z,94980.23
2019-03-05T08:33:17.518Z,94975.58
2019-03-05T08:36:06.663Z,94969.52
2019-03-05T08:38:55.174Z,94959.90
2019-03-05T08:41:43.949Z,94967.47
2019-03-05T08:44:32.376Z,94965.92
2019-03-05T08:47:21.285Z,94955.96
2019-03-05T08:50:12.621Z,94946.67
2019-03-05T08:53:01.123Z,94952.03
2019-03-05T08:55:50.132Z,94952.03
2019-03-05T08:58:39.231Z,94957.63
2019-03-05T09:01:27.991Z,94958.24
2019-03-05T09:04:16.685Z,94961.55
2019-03-05T09:07:05.416Z,94962.55
2019-03-05T09:09:54.603Z,94956.91
2019-03-05T09:12:43.375Z,94955.92
2019-03-05T09:15:32.201Z,94947.14
2019-03-05T09:18:20.962Z,94959.63
2019-03-05T09:21:10.196Z,94977.75
2019-03-05T09:23:59.380Z,94965.15
2019-03-05T09:26:51.589Z,94978.54
2019-03-05T09:29:39.314Z,94958.25
2019-03-05T09:32:31.867Z,94965.39
2019-03-05T09:35:20.640Z,94977.53
2019-03-05T09:38:09.872Z,94970.99
2019-03-05T09:40:59.197Z,94978.59
2019-03-05T09:43:49.483Z,94985.25
2019-03-05T09:46:38.577Z,94978.78
2019-03-05T09:49:27.109Z,94983.87
2019-03-05T09:52:15.954Z,94987.70
2019-03-05T09:55:05.265Z,94981.75
2019-03-05T09:58:07.115Z,94966.88
2019-03-05T10:00:46.223Z,94987.55
2019-03-05T10:03:35.059Z,94975.36
2019-03-05T10:06:23.485Z,94984.54
2019-03-05T10:09:14.291Z,94987.02
2019-03-05T10:12:03.346Z,94972.17
2019-03-05T10:14:51.969Z,94975.64
2019-03-05T10:17:40.858Z,94999.45
2019-03-05T10:20:29.569Z,94966.72
2019-03-05T10:23:18.547Z,94973.36
2019-03-05T10:26:06.786Z,94999.89
2019-03-05T10:28:55.808Z,94988.76
2019-03-05T10:31:44.991Z,94993.78
2019-03-05T10:34:33.805Z,94983.93
2019-03-05T10:37:23.015Z,94986.46
2019-03-05T10:40:13.337Z,94980.73
2019-03-05T10:43:08.378Z,94984.92
2019-03-05T10:45:54.206Z,94971.75
2019-03-05T10:48:43.008Z,94961.33
2019-03-05T10:51:31.858Z,94963.89
2019-03-05T10:54:20.858Z,94957.83
2019-03-05T10:57:09.923Z,94959.72
2019-03-05T10:59:58.729Z,94976.96
2019-03-05T11:02:49.192Z,94998.52
2019-03-05T11:05:38.792Z,94994.17
2019-03-05T11:08:28.111Z,94969.25
2019-03-05T11:11:16.610Z,94968.23
2019-03-05T11:14:05.901Z,94962.67
2019-03-05T11:16:55.581Z,94962.36
2019-03-05T11:19:44.376Z,94960.06
2019-03-05T11:22:32.611Z,94963.97
2019-03-05T11:25:21.772Z,94962.70
2019-03-05T11:28:10.288Z,94973.97
2019-03-05T11:30:59.056Z,94974.15
2019-03-05T11:33:47.755Z,95006.25
2019-03-05T11:36:36.553Z,94995.88
2019-03-05T11:39:26.262Z,94995.69
2019-03-05T11:42:15.078Z,94993.31
2019-03-05T11:45:07.770Z,94993.73
2019-03-05T11:47:56.139Z,94988.63
2019-03-05T11:50:45.117Z,94984.23
2019-03-05T11:53:33.699Z,94959.28
2019-03-05T11:56:22.470Z,94950.08
2019-03-05T11:59:11.250Z,94960.69
2019-03-05T12:02:00.287Z,94961.98
2019-03-05T12:04:48.601Z,94963.66
2019-03-05T12:07:37.773Z,94949.19
2019-03-05T12:10:26.844Z,94948.78
2019-03-05T12:13:16.103Z,94945.88
2019-03-05T12:16:09.143Z,94936.90
2019-03-05T12:18:57.405Z,94933.11
2019-03-05T12:21:46.911Z,94928.80
2019-03-05T12:24:36.674Z,94934.92
2019-03-05T12:27:27.458Z,94930.47
2019-03-05T12:30:19.204Z,94935.20
2019-03-05T12:33:08.129Z,94922.67
2019-03-05T12:35:56.580Z,94935.20
2019-03-05T12:38:46.412Z,94930.67
2019-03-05T12:41:35.806Z,94904.71
2019-03-05T12:44:25.172Z,94922.23
2019-03-05T12:47:15.925Z,94909.02
2019-03-05T12:50:04.793Z,94901.11
2019-03-05T12:52:53.273Z,94916.83
2019-03-05T12:55:41.666Z,94911.22
2019-03-05T12:58:30.399Z,94904.75
2019-03-05T13:01:18.560Z,94900.45
2019-03-05T13:04:06.712Z,94896.94
2019-03-05T13:06:55.203Z,94886.91
2019-03-05T13:09:45.483Z,94885.00
2019-03-05T13:12:36.012Z,94897.71
2019-03-05T13:15:27.439Z,94879.13
2019-03-05T13:18:16.340Z,94897.91
2019-03-05T13:21:07.702Z,94882.34
2019-03-05T13:23:55.630Z,94882.13
2019-03-05T13:26:44.967Z,94876.19
2019-03-05T13:29:34.231Z,94875.48
2019-03-05T13:32:23.237Z,94885.62
2019-03-05T13:35:14.607Z,94869.39
2019-03-05T13:38:07.408Z,94866.06
2019-03-05T13:40:55.152Z,94866.31
2019-03-05T13:43:43.790Z,94879.98
2019-03-05T13:46:32.428Z,94871.90
2019-03-05T13:50:04.447Z,94857.68
2019-03-05T13:53:46.108Z,94875.30
2019-03-05T13:57:37.017Z,94865.34
2019-03-05T14:00:25.781Z,94870.84
2019-03-05T14:03:37.850Z,94869.91
2019-03-05T14:06:58.495Z,94868.20
2019-03-05T14:09:45.367Z,94865.06
2019-03-05T14:12:34.663Z,94872.22
2019-03-05T14:15:26.568Z,94873.08
2019-03-05T14:18:14.868Z,94877.67
2019-03-05T14:21:03.899Z,94877.09
2019-03-05T14:23:52.719Z,94886.31
2019-03-05T14:26:42.046Z,94875.88
2019-03-05T14:29:30.556Z,94871.61
2019-03-05T14:32:19.577Z,94878.63
2019-03-05T14:35:17.007Z,94884.63
2019-03-05T14:38:05.505Z,94873.48
2019-03-05T14:40:54.056Z,94883.73
2019-03-05T14:43:42.380Z,94875.39
2019-03-05T14:46:31.347Z,94885.23
2019-03-05T14:49:20.376Z,94884.03
2019-03-05T14:52:09.632Z,94876.53
2019-03-05T14:54:59.022Z,94882.30
2019-03-05T14:57:48.068Z,94881.70
2019-03-05T15:00:37.582Z,94880.70
2019-03-05T15:03:26.826Z,94883.70
2019-03-05T15:06:15.649Z,94893.11
2019-03-05T15:09:05.345Z,94879.94
2019-03-05T15:11:53.823Z,94882.80
2019-03-05T15:14:42.638Z,94895.41
2019-03-05T15:17:31.621Z,94886.80
2019-03-05T15:20:22.674Z,94908.82
2019-03-05T15:23:10.788Z,94899.20
2019-03-05T15:25:59.359Z,94896.64
2019-03-05T15:28:56.278Z,94904.25
2019-03-05T15:31:38.250Z,94917.76
2019-03-05T15:34:27.872Z,94918.55
2019-03-05T15:37:16.168Z,94930.85
2019-03-05T15:40:05.181Z,94926.94
2019-03-05T15:42:53.989Z,94945.59
2019-03-05T15:45:42.540Z,94957.06
2019-03-05T15:48:31.730Z,94965.85
2019-03-05T15:51:19.951Z,94967.75
2019-03-05T15:54:08.298Z,94964.25
2019-03-05T15:56:57.486Z,94974.80
2019-03-05T15:59:46.364Z,94985.40
2019-03-05T16:02:34.942Z,94963.06
2019-03-05T16:05:24.472Z,94964.86
2019-03-05T16:08:13.359Z,94963.39
2019-03-05T16:11:01.700Z,94962.17
2019-03-05T16:13:52.305Z,94966.16
2019-03-05T16:16:41.952Z,94971.20
2019-03-05T16:19:30.933Z,94975.17
2019-03-05T16:22:19.469Z,94981.94
2019-03-05T16:25:09.941Z,94983.69
2019-03-05T16:28:02.281Z,95006.87
2019-03-05T16:30:57.930Z,94994.55
2019-03-05T16:34:05.360Z,95009.50
2019-03-05T16:37:09.949Z,95016.84
2019-03-05T16:40:23.957Z,95016.03
2019-03-05T16:43:24.175Z,95015.96
2019-03-05T16:46:37.844Z,95016.86
2019-03-05T16:49:43.918Z,95037.47
2019-03-05T16:52:55.267Z,95026.27
2019-03-05T16:56:02.170Z,95032.53
2019-03-05T16:59:25.936Z,95039.16
2019-03-05T17:02:39.993Z,95049.58
2019-03-05T17:05:50.939Z,95060.13
2019-03-05T17:08:57.832Z,95061.37
2019-03-05T17:12:11.479Z,95067.58
2019-03-05T17:15:00.327Z,95059.92
2019-03-05T17:17:49.153Z,95058.28
2019-03-05T17:20:38.022Z,95065.58
2019-03-05T17:23:27.156Z,95064.81
2019-03-05T17:26:16.013Z,95067.74
2019-03-05T17:29:04.563Z,95075.98
2019-03-05T17:31:53.461Z,95075.87
2019-03-05T17:34:42.648Z,95079.64
2019-03-05T17:37:30.741Z,95078.33
2019-03-05T17:40:20.186Z,95087.33
2019-03-05T17:43:08.780Z,95091.77
2019-03-05T17:45:57.789Z,95101.83
2019-03-05T17:48:46.434Z,95100.83
2019-03-05T17:51:35.235Z,95103.89
2019-03-05T17:54:24.187Z,95107.72
2019-03-05T17:57:13.301Z,95116.84
2019-03-05T18:00:02.389Z,95125.91
2019-03-05T18:02:51.245Z,95140.80
2019-03-05T18:05:40.325Z,95150.03
2019-03-05T18:08:28.636Z,95161.22
2019-03-05T18:11:17.607Z,95170.28
2019-03-05T18:14:06.658Z,95184.51
2019-03-05T18:16:55.647Z,95190.16
2019-03-05T18:19:44.556Z,95193.27
2019-03-05T18:22:33.227Z,95192.75
2019-03-05T18:25:21.575Z,95194.70
2019-03-05T18:28:10.003Z,95195.22
2019-03-05T18:30:59.088Z,95202.75
2019-03-05T18:33:47.728Z,95197.11
2019-03-05T18:36:36.413Z,95197.99
2019-03-05T18:39:25.131Z,95191.70
2019-03-05T18:42:13.803Z,95193.55
2019-03-05T18:45:02.613Z,95193.63
2019-03-05T18:47:51.395Z,95201.44
2019-03-05T18:50:40.678Z,95197.59
2019-03-05T18:53:30.010Z,95197.64
2019-03-05T18:56:18.454Z,95201.69
2019-03-05T18:59:07.768Z,95214.11
2019-03-05T19:01:56.634Z,95213.66
2019-03-05T19:04:45.942Z,95222.30
2019-03-05T19:07:34.942Z,95239.17
2019-03-05T19:10:23.853Z,95241.87
2019-03-05T19:13:13.169Z,95255.70
2019-03-05T19:16:02.940Z,95261.30
2019-03-05T19:18:51.986Z,95266.49
2019-03-05T19:21:40.959Z,95271.31
2019-03-05T19:24:29.905Z,95270.83
2019-03-05T19:27:25.836Z,95275.25
2019-03-05T19:30:11.435Z,95278.68
2019-03-05T19:32:59.821Z,95301.88
2019-03-05T19:35:48.777Z,95292.11
2019-03-05T19:38:38.154Z,95304.61
2019-03-05T19:41:26.473Z,95301.09
2019-03-05T19:44:16.051Z,95312.30
2019-03-05T19:47:05.303Z,95316.72
2019-03-05T19:49:55.049Z,95316.72
2019-03-05T19:52:44.258Z,95316.59
2019-03-05T19:55:33.588Z,95312.81
2019-03-05T19:58:22.102Z,95312.78
2019-03-05T20:01:13.279Z,95316.62
2019-03-05T20:04:11.252Z,95319.63
2019-03-05T20:06:52.540Z,95321.77
2019-03-05T20:09:41.600Z,95329.03
2019-03-05T20:12:31.322Z,95335.92
2019-03-05T20:15:20.011Z,95326.75
2019-03-05T20:18:09.139Z,95335.86
2019-03-05T20:20:58.484Z,95328.91
2019-03-05T20:23:47.810Z,95324.20
2019-03-05T20:26:36.776Z,95320.28
2019-03-05T20:29:25.813Z,95318.58
2019-03-05T20:32:16.064Z,95325.39
2019-03-05T20:35:05.406Z,95328.94
2019-03-05T20:37:54.283Z,95337.21
2019-03-05T20:40:43.343Z,95338.89
2019-03-05T20:43:32.350Z,95341.03
2019-03-05T20:46:25.196Z,95347.88
2019-03-05T20:49:13.941Z,95353.02
2019-03-05T20:52:03.057Z,95351.75
2019-03-05T20:54:52.291Z,95354.66
2019-03-05T20:57:41.409Z,95349.11
2019-03-05T21:00:31.473Z,95347.27
2019-03-05T21:03:20.999Z,95339.05
2019-03-05T21:06:09.939Z,95329.44
2019-03-05T21:08:58.858Z,95347.06
2019-03-05T21:11:48.287Z,95352.72
2019-03-05T21:14:36.985Z,95349.26
2019-03-05T21:17:26.123Z,95350.97
2019-03-05T21:20:15.837Z,95347.06
2019-03-05T21:23:04.727Z,95351.25
2019-03-05T21:25:53.547Z,95347.71
2019-03-05T21:28:42.631Z,95341.63
2019-03-05T21:31:30.909Z,95342.05
2019-03-05T21:34:19.077Z,95339.41
2019-03-05T21:37:07.461Z,95335.08
2019-03-05T21:39:56.707Z,95346.27
2019-03-05T21:42:46.015Z,95344.52
2019-03-05T21:45:36.406Z,95338.46
2019-03-05T21:48:24.992Z,95333.74
2019-03-05T21:51:13.614Z,95336.75
2019-03-05T21:54:02.861Z,95323.44
2019-03-05T21:56:51.584Z,95331.58
2019-03-05T21:59:40.163Z,95331.57
2019-03-05T22:02:29.303Z,95330.70
2019-03-05T22:05:17.681Z,95334.13
2019-03-05T22:08:06.366Z,95330.20
2019-03-05T22:10:54.711Z,95327.20
2019-03-05T22:13:43.596Z,95329.37
2019-03-05T22:16:33.091Z,95332.03
2019-03-05T22:19:21.983Z,95335.00
2019-03-05T22:22:11.113Z,95338.20
2019-03-05T22:25:00.334Z,95342.50
2019-03-05T22:27:49.144Z,95349.38
2019-03-05T22:30:37.539Z,95349.34
2019-03-05T22:33:26.990Z,95347.64
2019-03-05T22:36:15.591Z,95357.64
2019-03-05T22:39:05.357Z,95353.80
2019-03-05T22:41:54.210Z,95352.92
2019-03-05T22:44:42.767Z,95348.12
2019-03-05T22:47:31.370Z,95339.48
2019-03-05T22:50:20.254Z,95337.73
2019-03-05T22:53:08.770Z,95336.91
2019-03-05T22:55:57.328Z,95338.16
2019-03-05T22:58:45.704Z,95336.87
2019-03-05T23:01:43.284Z,95336.00
2019-03-05T23:04:38.286Z,95347.71
2019-03-05T23:07:27.094Z,95340.41
2019-03-05T23:10:17.356Z,95346.91
2019-03-05T23:13:05.760Z,95350.86
2019-03-05T23:15:54.827Z,95348.73
2019-03-05T23:18:43.526Z,95353.45
2019-03-05T23:21:32.719Z,95356.45
2019-03-05T23:24:21.471Z,95365.09
2019-03-05T23:27:10.532Z,95360.83
2019-03-05T23:29:59.570Z,95356.07
2019-03-05T23:32:49.230Z,95360.83
2019-03-05T23:35:37.376Z,95355.27
2019-03-05T23:38:26.510Z,95354.85
2019-03-05T23:41:15.293Z,95363.94
2019-03-05T23:44:03.907Z,95366.14
2019-03-05T23:46:52.740Z,95364.48
2019-03-05T23:49:40.896Z,95363.23
2019-03-05T23:52:29.052Z,95365.81
2019-03-05T23:55:18.646Z,95361.13
2019-03-05T23:58:07.064Z,95362.88
